sensor_id;sensor_type;location;lat;lon;timestamp;pressure;altitude;pressure_sealevel;temperature;humidity
62111;BME280;48102;47.526;19.072;2023-05-25T03:40:36;100655.56;;;14.23;100.00
62111;BME280;48102;47.526;19.072;2023-05-25T03:43:40;100655.56;;;14.23;100.00
62111;BME280;48102;47.526;19.072;2023-05-25T03:46:43;100654.03;;;13.75;100.00
62111;BME280;48102;47.526;19.072;2023-05-25T03:49:47;100651.78;;;13.83;100.00
62111;BME280;48102;47.526;19.072;2023-05-25T03:52:50;100653.87;;;13.92;100.00
62111;BME280;48102;47.526;19.072;2023-05-25T03:55:53;100653.34;;;14.01;100.00
62111;BME280;48102;47.526;19.072;2023-05-25T03:58:55;100665.09;;;14.12;100.00
62111;BME280;48102;47.526;19.072;2023-05-25T04:01:58;100660.97;;;14.22;100.00
62111;BME280;48102;47.526;19.072;2023-05-25T04:05:03;100667.13;;;14.37;100.00
62111;BME280;48102;47.526;19.072;2023-05-25T04:08:06;100671.81;;;14.47;100.00
62111;BME280;48102;47.526;19.072;2023-05-25T04:11:10;100674.59;;;14.60;100.00
62111;BME280;48102;47.526;19.072;2023-05-25T04:14:13;100675.16;;;14.79;100.00
62111;BME280;48102;47.526;19.072;2023-05-25T04:17:16;100676.66;;;14.98;100.00
62111;BME280;48102;47.526;19.072;2023-05-25T04:20:20;100675.59;;;15.29;100.00
62111;BME280;48102;47.526;19.072;2023-05-25T04:23:23;100674.34;;;15.62;100.00
62111;BME280;48102;47.526;19.072;2023-05-25T04:26:26;100680.72;;;15.86;100.00
62111;BME280;48102;47.526;19.072;2023-05-25T04:29:31;100680.56;;;16.15;100.00
62111;BME280;48102;47.526;19.072;2023-05-25T04:32:34;100679.41;;;16.31;100.00
62111;BME280;48102;47.526;19.072;2023-05-25T04:35:39;100683.69;;;16.47;100.00
62111;BME280;48102;47.526;19.072;2023-05-25T04:38:45;100685.31;;;16.75;100.00
62111;BME280;48102;47.526;19.072;2023-05-25T04:41:49;100690.41;;;17.03;100.00
62111;BME280;48102;47.526;19.072;2023-05-25T04:44:54;100696.00;;;17.24;100.00
62111;BME280;48102;47.526;19.072;2023-05-25T04:47:57;100701.94;;;17.41;100.00
62111;BME280;48102;47.526;19.072;2023-05-25T04:51:03;100691.56;;;17.49;100.00
62111;BME280;48102;47.526;19.072;2023-05-25T04:54:06;100694.41;;;17.59;100.00
62111;BME280;48102;47.526;19.072;2023-05-25T04:57:09;100695.88;;;17.75;100.00
62111;BME280;48102;47.526;19.072;2023-05-25T05:00:12;100691.19;;;17.90;100.00
62111;BME280;48102;47.526;19.072;2023-05-25T05:03:17;100699.41;;;17.87;100.00
62111;BME280;48102;47.526;19.072;2023-05-25T05:06:21;100695.28;;;17.83;100.00
62111;BME280;48102;47.526;19.072;2023-05-25T05:09:25;100709.34;;;17.85;100.00
62111;BME280;48102;47.526;19.072;2023-05-25T05:12:28;100701.37;;;17.72;100.00
62111;BME280;48102;47.526;19.072;2023-05-25T05:15:31;100704.25;;;17.69;100.00
62111;BME280;48102;47.526;19.072;2023-05-25T05:18:34;100707.56;;;17.73;100.00
62111;BME280;48102;47.526;19.072;2023-05-25T05:21:37;100714.06;;;17.69;100.00
62111;BME280;48102;47.526;19.072;2023-05-25T05:24:41;100711.19;;;17.85;100.00
62111;BME280;48102;47.526;19.072;2023-05-25T05:27:44;100710.63;;;18.03;100.00
62111;BME280;48102;47.526;19.072;2023-05-25T05:30:47;100705.84;;;18.20;100.00
62111;BME280;48102;47.526;19.072;2023-05-25T05:33:50;100708.44;;;18.33;100.00
62111;BME280;48102;47.526;19.072;2023-05-25T05:36:53;100704.69;;;18.35;100.00
62111;BME280;48102;47.526;19.072;2023-05-25T05:40:00;100713.94;;;18.53;100.00
62111;BME280;48102;47.526;19.072;2023-05-25T05:43:03;100713.00;;;18.66;100.00
62111;BME280;48102;47.526;19.072;2023-05-25T05:46:05;100711.56;;;18.73;100.00
62111;BME280;48102;47.526;19.072;2023-05-25T05:49:08;100708.06;;;18.72;100.00
62111;BME280;48102;47.526;19.072;2023-05-25T05:52:11;100711.84;;;18.92;100.00
62111;BME280;48102;47.526;19.072;2023-05-25T05:55:14;100722.88;;;19.10;100.00
62111;BME280;48102;47.526;19.072;2023-05-25T05:58:18;100717.56;;;19.21;100.00
62111;BME280;48102;47.526;19.072;2023-05-25T06:01:21;100730.03;;;19.32;100.00
62111;BME280;48102;47.526;19.072;2023-05-25T06:04:25;100729.06;;;19.44;100.00
62111;BME280;48102;47.526;19.072;2023-05-25T06:07:31;100728.16;;;19.55;100.00
62111;BME280;48102;47.526;19.072;2023-05-25T06:10:37;100733.69;;;19.65;100.00
62111;BME280;48102;47.526;19.072;2023-05-25T06:13:39;100728.28;;;19.76;100.00
62111;BME280;48102;47.526;19.072;2023-05-25T06:16:43;100732.66;;;19.77;100.00
62111;BME280;48102;47.526;19.072;2023-05-25T06:19:46;100727.03;;;19.91;100.00
62111;BME280;48102;47.526;19.072;2023-05-25T06:22:49;100723.44;;;20.02;100.00
62111;BME280;48102;47.526;19.072;2023-05-25T06:25:53;100729.16;;;20.09;100.00
62111;BME280;48102;47.526;19.072;2023-05-25T06:28:57;100733.28;;;20.13;100.00
62111;BME280;48102;47.526;19.072;2023-05-25T06:31:59;100728.44;;;20.27;100.00
62111;BME280;48102;47.526;19.072;2023-05-25T06:35:03;100736.09;;;20.32;100.00
62111;BME280;48102;47.526;19.072;2023-05-25T06:38:06;100729.25;;;20.39;100.00
62111;BME280;48102;47.526;19.072;2023-05-25T06:41:10;100724.44;;;20.54;100.00
62111;BME280;48102;47.526;19.072;2023-05-25T06:44:17;100726.19;;;20.65;100.00
62111;BME280;48102;47.526;19.072;2023-05-25T06:47:20;100734.03;;;20.77;100.00
62111;BME280;48102;47.526;19.072;2023-05-25T06:50:23;100730.66;;;20.85;100.00
62111;BME280;48102;47.526;19.072;2023-05-25T06:53:26;100734.34;;;20.84;100.00
62111;BME280;48102;47.526;19.072;2023-05-25T06:56:28;100746.31;;;21.11;100.00
62111;BME280;48102;47.526;19.072;2023-05-25T06:59:32;100736.53;;;21.30;100.00
62111;BME280;48102;47.526;19.072;2023-05-25T07:02:35;100739.97;;;21.42;100.00
62111;BME280;48102;47.526;19.072;2023-05-25T07:05:38;100742.09;;;21.48;96.66
62111;BME280;48102;47.526;19.072;2023-05-25T07:08:40;100749.88;;;21.51;97.69
62111;BME280;48102;47.526;19.072;2023-05-25T07:11:44;100751.31;;;21.65;95.52
62111;BME280;48102;47.526;19.072;2023-05-25T07:14:46;100751.34;;;21.75;93.09
62111;BME280;48102;47.526;19.072;2023-05-25T07:17:50;100754.63;;;21.98;97.69
62111;BME280;48102;47.526;19.072;2023-05-25T07:20:52;100750.69;;;22.12;90.76
62111;BME280;48102;47.526;19.072;2023-05-25T07:23:55;100764.09;;;22.41;91.13
62111;BME280;48102;47.526;19.072;2023-05-25T07:26:58;100760.59;;;22.50;88.46
62111;BME280;48102;47.526;19.072;2023-05-25T07:30:01;100755.34;;;22.39;88.35
62111;BME280;48102;47.526;19.072;2023-05-25T07:33:04;100752.69;;;22.19;87.30
62111;BME280;48102;47.526;19.072;2023-05-25T07:36:07;100759.16;;;22.07;88.04
62111;BME280;48102;47.526;19.072;2023-05-25T07:39:11;100750.56;;;22.13;87.83
62111;BME280;48102;47.526;19.072;2023-05-25T07:42:14;100755.94;;;22.33;87.92
62111;BME280;48102;47.526;19.072;2023-05-25T07:45:22;100758.87;;;22.59;89.15
62111;BME280;48102;47.526;19.072;2023-05-25T07:48:25;100760.13;;;22.64;84.62
62111;BME280;48102;47.526;19.072;2023-05-25T07:51:28;100759.84;;;22.67;83.53
62111;BME280;48102;47.526;19.072;2023-05-25T07:54:31;100755.19;;;22.69;79.91
62111;BME280;48102;47.526;19.072;2023-05-25T07:57:34;100755.44;;;22.86;79.33
62111;BME280;48102;47.526;19.072;2023-05-25T08:00:37;100761.06;;;22.92;77.50
62111;BME280;48102;47.526;19.072;2023-05-25T08:03:40;100758.09;;;22.95;74.31
62111;BME280;48102;47.526;19.072;2023-05-25T08:06:49;100759.78;;;22.96;74.33
62111;BME280;48102;47.526;19.072;2023-05-25T08:09:52;100764.50;;;23.22;76.44
62111;BME280;48102;47.526;19.072;2023-05-25T08:12:54;100758.19;;;23.13;71.87
62111;BME280;48102;47.526;19.072;2023-05-25T08:16:00;100752.00;;;23.03;72.39
62111;BME280;48102;47.526;19.072;2023-05-25T08:19:03;100759.84;;;23.24;76.79
62111;BME280;48102;47.526;19.072;2023-05-25T08:22:06;100755.28;;;23.34;75.76
62111;BME280;48102;47.526;19.072;2023-05-25T08:25:09;100762.03;;;23.38;73.18
62111;BME280;48102;47.526;19.072;2023-05-25T08:28:12;100763.84;;;23.47;73.33
62111;BME280;48102;47.526;19.072;2023-05-25T08:31:15;100759.91;;;23.42;72.96
62111;BME280;48102;47.526;19.072;2023-05-25T08:34:18;100764.94;;;23.54;67.52
62111;BME280;48102;47.526;19.072;2023-05-25T08:37:21;100768.81;;;23.42;67.67
62111;BME280;48102;47.526;19.072;2023-05-25T08:40:27;100762.16;;;23.46;70.58
62111;BME280;48102;47.526;19.072;2023-05-25T08:43:32;100762.50;;;23.34;65.24
62111;BME280;48102;47.526;19.072;2023-05-25T08:46:35;100760.47;;;23.91;67.56
62111;BME280;48102;47.526;19.072;2023-05-25T08:49:38;100764.09;;;24.17;65.78
62111;BME280;48102;47.526;19.072;2023-05-25T08:52:44;100762.81;;;24.03;69.37
62111;BME280;48102;47.526;19.072;2023-05-25T08:55:49;100763.81;;;24.38;67.94
62111;BME280;48102;47.526;19.072;2023-05-25T08:59:01;100768.13;;;25.19;62.29
62111;BME280;48102;47.526;19.072;2023-05-25T09:05:23;100767.66;;;25.32;62.50
62111;BME280;48102;47.526;19.072;2023-05-25T09:08:26;100763.78;;;25.34;63.19
62111;BME280;48102;47.526;19.072;2023-05-25T09:11:30;100764.62;;;25.26;60.87
62111;BME280;48102;47.526;19.072;2023-05-25T09:14:42;100767.28;;;25.18;63.41
62111;BME280;48102;47.526;19.072;2023-05-25T09:17:49;100759.59;;;24.53;64.71
62111;BME280;48102;47.526;19.072;2023-05-25T09:20:55;100760.34;;;24.28;72.41
62111;BME280;48102;47.526;19.072;2023-05-25T09:23:59;100765.50;;;24.39;70.78
62111;BME280;48102;47.526;19.072;2023-05-25T09:27:02;100763.66;;;24.58;69.09
62111;BME280;48102;47.526;19.072;2023-05-25T09:30:08;100757.94;;;24.87;69.86
62111;BME280;48102;47.526;19.072;2023-05-25T09:33:11;100753.94;;;25.17;64.81
62111;BME280;48102;47.526;19.072;2023-05-25T09:36:15;100755.37;;;25.37;65.44
62111;BME280;48102;47.526;19.072;2023-05-25T09:39:18;100758.34;;;25.68;63.64
62111;BME280;48102;47.526;19.072;2023-05-25T09:42:21;100771.53;;;25.71;64.89
62111;BME280;48102;47.526;19.072;2023-05-25T09:45:25;100772.44;;;25.88;63.07
62111;BME280;48102;47.526;19.072;2023-05-25T09:48:31;100775.53;;;26.10;61.52
62111;BME280;48102;47.526;19.072;2023-05-25T09:51:34;100772.50;;;26.13;61.18
62111;BME280;48102;47.526;19.072;2023-05-25T09:54:38;100769.13;;;26.35;61.63
62111;BME280;48102;47.526;19.072;2023-05-25T09:57:41;100772.81;;;26.99;58.33
62111;BME280;48102;47.526;19.072;2023-05-25T10:00:45;100773.47;;;27.18;59.23
62111;BME280;48102;47.526;19.072;2023-05-25T10:03:48;100779.16;;;27.39;57.98
62111;BME280;48102;47.526;19.072;2023-05-25T10:07:06;100769.06;;;27.09;56.62
62111;BME280;48102;47.526;19.072;2023-05-25T10:10:12;100764.22;;;26.96;55.40
62111;BME280;48102;47.526;19.072;2023-05-25T10:13:21;100763.19;;;26.97;56.94
62111;BME280;48102;47.526;19.072;2023-05-25T10:16:29;100765.38;;;27.10;58.17
62111;BME280;48102;47.526;19.072;2023-05-25T10:23:07;100762.69;;;27.10;57.70
62111;BME280;48102;47.526;19.072;2023-05-25T10:26:12;100757.16;;;27.42;56.75
62111;BME280;48102;47.526;19.072;2023-05-25T10:29:19;100758.66;;;27.45;54.05
62111;BME280;48102;47.526;19.072;2023-05-25T10:32:23;100754.34;;;27.59;53.23
62111;BME280;48102;47.526;19.072;2023-05-25T10:35:27;100751.47;;;27.60;55.75
62111;BME280;48102;47.526;19.072;2023-05-25T10:38:32;100748.13;;;27.89;53.36
62111;BME280;48102;47.526;19.072;2023-05-25T10:41:35;100745.28;;;27.83;49.56
62111;BME280;48102;47.526;19.072;2023-05-25T10:44:42;100748.63;;;27.54;53.04
62111;BME280;48102;47.526;19.072;2023-05-25T10:47:45;100744.81;;;27.40;57.17
62111;BME280;48102;47.526;19.072;2023-05-25T10:50:49;100742.78;;;27.42;57.49
62111;BME280;48102;47.526;19.072;2023-05-25T10:53:59;100743.47;;;27.67;55.58
62111;BME280;48102;47.526;19.072;2023-05-25T10:57:10;100744.25;;;27.84;54.04
62111;BME280;48102;47.526;19.072;2023-05-25T11:00:14;100735.19;;;28.45;51.49
62111;BME280;48102;47.526;19.072;2023-05-25T11:03:17;100733.19;;;28.39;49.52
62111;BME280;48102;47.526;19.072;2023-05-25T11:09:57;100729.13;;;29.98;46.76
62111;BME280;48102;47.526;19.072;2023-05-25T11:19:58;100722.16;;;29.23;50.96
62111;BME280;48102;47.526;19.072;2023-05-25T11:23:21;100715.56;;;29.62;49.51
62111;BME280;48102;47.526;19.072;2023-05-25T11:26:26;100719.00;;;30.35;45.33
62111;BME280;48102;47.526;19.072;2023-05-25T11:29:30;100717.66;;;30.73;43.06
62111;BME280;48102;47.526;19.072;2023-05-25T11:32:33;100715.63;;;30.54;44.37
62111;BME280;48102;47.526;19.072;2023-05-25T11:35:41;100711.06;;;30.61;46.20
62111;BME280;48102;47.526;19.072;2023-05-25T11:38:47;100713.44;;;30.99;44.83
62111;BME280;48102;47.526;19.072;2023-05-25T11:42:06;100706.34;;;31.39;47.33
62111;BME280;48102;47.526;19.072;2023-05-25T11:45:16;100701.47;;;32.16;42.31
62111;BME280;48102;47.526;19.072;2023-05-25T11:48:19;100707.13;;;32.01;42.37
62111;BME280;48102;47.526;19.072;2023-05-25T11:51:24;100700.63;;;31.95;40.74
62111;BME280;48102;47.526;19.072;2023-05-25T11:54:28;100695.88;;;33.22;41.08
62111;BME280;48102;47.526;19.072;2023-05-25T11:57:31;100697.50;;;34.38;36.28
62111;BME280;48102;47.526;19.072;2023-05-25T12:00:33;100693.03;;;34.43;38.41
62111;BME280;48102;47.526;19.072;2023-05-25T12:03:36;100677.78;;;32.50;40.15
62111;BME280;48102;47.526;19.072;2023-05-25T12:06:39;100676.66;;;31.16;43.68
62111;BME280;48102;47.526;19.072;2023-05-25T12:09:42;100677.66;;;30.18;44.36
62111;BME280;48102;47.526;19.072;2023-05-25T12:12:49;100676.97;;;29.52;44.60
62111;BME280;48102;47.526;19.072;2023-05-25T12:15:56;100663.44;;;31.81;44.86
62111;BME280;48102;47.526;19.072;2023-05-25T12:19:01;100666.22;;;36.63;36.80
62111;BME280;48102;47.526;19.072;2023-05-25T12:22:05;100665.31;;;37.95;30.22
62111;BME280;48102;47.526;19.072;2023-05-25T12:25:09;100663.06;;;35.10;34.49
62111;BME280;48102;47.526;19.072;2023-05-25T12:28:14;100653.59;;;33.31;38.64
62111;BME280;48102;47.526;19.072;2023-05-25T12:31:23;100659.44;;;35.47;36.22
62111;BME280;48102;47.526;19.072;2023-05-25T12:34:27;100658.88;;;39.99;30.07
62111;BME280;48102;47.526;19.072;2023-05-25T12:37:30;100663.31;;;43.69;24.69
62111;BME280;48102;47.526;19.072;2023-05-25T12:40:33;100656.03;;;45.32;22.66
62111;BME280;48102;47.526;19.072;2023-05-25T12:43:39;100652.19;;;45.09;21.24
62111;BME280;48102;47.526;19.072;2023-05-25T12:46:44;100645.91;;;45.93;20.93
62111;BME280;48102;47.526;19.072;2023-05-25T12:49:52;100644.16;;;46.43;21.24
62111;BME280;48102;47.526;19.072;2023-05-25T12:53:00;100648.66;;;48.03;20.69
62111;BME280;48102;47.526;19.072;2023-05-25T12:56:03;100626.84;;;44.68;21.90
62111;BME280;48102;47.526;19.072;2023-05-25T12:59:13;100627.03;;;40.66;26.38
62111;BME280;48102;47.526;19.072;2023-05-25T13:02:16;100622.09;;;37.79;30.82
62111;BME280;48102;47.526;19.072;2023-05-25T13:05:24;100612.22;;;35.86;34.07
62111;BME280;48102;47.526;19.072;2023-05-25T13:08:28;100606.78;;;34.16;36.02
62111;BME280;48102;47.526;19.072;2023-05-25T13:11:31;100602.03;;;32.32;38.69
62111;BME280;48102;47.526;19.072;2023-05-25T13:14:34;100591.31;;;32.50;41.14
62111;BME280;48102;47.526;19.072;2023-05-25T13:17:40;100590.28;;;31.71;40.32
62111;BME280;48102;47.526;19.072;2023-05-25T13:20:43;100587.97;;;32.28;40.76
62111;BME280;48102;47.526;19.072;2023-05-25T13:23:51;100580.69;;;31.89;40.43
62111;BME280;48102;47.526;19.072;2023-05-25T13:26:53;100579.28;;;31.18;40.40
62111;BME280;48102;47.526;19.072;2023-05-25T13:29:56;100579.00;;;30.93;39.97
62111;BME280;48102;47.526;19.072;2023-05-25T13:32:59;100583.72;;;34.67;41.57
62111;BME280;48102;47.526;19.072;2023-05-25T13:36:03;100588.03;;;40.57;29.48
62111;BME280;48102;47.526;19.072;2023-05-25T13:39:11;100587.28;;;43.25;23.90
62111;BME280;48102;47.526;19.072;2023-05-25T13:42:15;100588.69;;;44.92;24.18
62111;BME280;48102;47.526;19.072;2023-05-25T13:45:38;100577.13;;;46.48;21.85
62111;BME280;48102;47.526;19.072;2023-05-25T13:49:02;100580.56;;;47.99;20.00
62111;BME280;48102;47.526;19.072;2023-05-25T13:52:25;100577.00;;;48.07;19.46
62111;BME280;48102;47.526;19.072;2023-05-25T13:55:48;100561.44;;;49.33;18.44
62111;BME280;48102;47.526;19.072;2023-05-25T13:58:51;100562.72;;;49.44;18.16
62111;BME280;48102;47.526;19.072;2023-05-25T14:01:55;100554.66;;;49.60;17.08
62111;BME280;48102;47.526;19.072;2023-05-25T14:04:58;100544.28;;;49.60;18.65
62111;BME280;48102;47.526;19.072;2023-05-25T14:08:01;100542.28;;;50.16;17.35
62111;BME280;48102;47.526;19.072;2023-05-25T14:11:06;100536.09;;;49.29;18.45
62111;BME280;48102;47.526;19.072;2023-05-25T14:14:09;100533.00;;;44.36;21.74
62111;BME280;48102;47.526;19.072;2023-05-25T14:17:28;100523.62;;;39.99;25.91
62111;BME280;48102;47.526;19.072;2023-05-25T14:20:31;100515.88;;;36.70;30.07
62111;BME280;48102;47.526;19.072;2023-05-25T14:23:38;100527.53;;;39.66;28.95
62111;BME280;48102;47.526;19.072;2023-05-25T14:26:41;100525.31;;;43.01;24.31
62111;BME280;48102;47.526;19.072;2023-05-25T14:29:49;100516.22;;;45.21;20.37
62111;BME280;48102;47.526;19.072;2023-05-25T14:32:52;100523.38;;;46.84;20.33
62111;BME280;48102;47.526;19.072;2023-05-25T14:35:55;100521.41;;;48.71;18.96
62111;BME280;48102;47.526;19.072;2023-05-25T14:38:58;100526.88;;;50.31;17.63
62111;BME280;48102;47.526;19.072;2023-05-25T14:42:02;100529.50;;;51.53;16.38
62111;BME280;48102;47.526;19.072;2023-05-25T14:45:05;100518.25;;;49.42;16.73
62111;BME280;48102;47.526;19.072;2023-05-25T14:48:12;100513.62;;;50.02;17.69
62111;BME280;48102;47.526;19.072;2023-05-25T14:51:18;100522.72;;;51.21;16.55
62111;BME280;48102;47.526;19.072;2023-05-25T14:54:21;100508.09;;;50.53;16.27
62111;BME280;48102;47.526;19.072;2023-05-25T14:57:23;100506.84;;;49.65;17.27
62111;BME280;48102;47.526;19.072;2023-05-25T15:00:26;100512.91;;;48.85;18.01
62111;BME280;48102;47.526;19.072;2023-05-25T15:03:29;100505.78;;;48.79;19.40
62111;BME280;48102;47.526;19.072;2023-05-25T15:06:32;100509.75;;;49.86;17.73
62111;BME280;48102;47.526;19.072;2023-05-25T15:09:35;100503.31;;;50.53;16.83
62111;BME280;48102;47.526;19.072;2023-05-25T15:12:38;100503.97;;;49.91;16.35
62111;BME280;48102;47.526;19.072;2023-05-25T15:15:40;100507.78;;;50.16;16.95
62111;BME280;48102;47.526;19.072;2023-05-25T15:18:43;100509.06;;;51.89;15.80
62111;BME280;48102;47.526;19.072;2023-05-25T15:21:46;100499.47;;;51.33;14.95
62111;BME280;48102;47.526;19.072;2023-05-25T15:24:49;100491.50;;;49.15;17.17
62111;BME280;48102;47.526;19.072;2023-05-25T15:27:52;100489.69;;;46.81;19.47
62111;BME280;48102;47.526;19.072;2023-05-25T15:30:55;100487.59;;;45.67;21.14
